Time;durP1;ratioP1;P1;durP2;ratioP2;P2;SDS_P1;SDS_P2;PMS_P1;PMS_P2;Temp;Humidity;BMP_temperature;BMP_pressure;BME280_temperature;BME280_humidity;BME280_pressure;Samples;Min_cycle;Max_cycle;Signal;HPM_P1;HPM_P2
2023/06/08 00:01:39;;;;;;;17.43;15.93;;;20.80;83.60;;;;;;5054585;28;20449;-57
2023/06/08 00:04:07;;;;;;;18.60;16.90;;;20.70;83.80;;;;;;5054223;28;20473;-57
2023/06/08 00:06:37;;;;;;;17.30;15.70;;;20.70;83.80;;;;;;5053601;28;21044;-57
2023/06/08 00:09:04;;;;;;;17.80;16.20;;;20.80;83.70;;;;;;5054175;28;20871;-57
2023/06/08 00:11:31;;;;;;;19.10;17.40;;;20.70;83.70;;;;;;5053865;28;20468;-57
2023/06/08 00:13:58;;;;;;;18.83;16.33;;;20.80;83.70;;;;;;5054251;28;20462;-57
2023/06/08 00:16:25;;;;;;;16.57;15.07;;;20.70;83.70;;;;;;5053956;28;20858;-57
2023/06/08 00:18:56;;;;;;;17.43;15.83;;;20.70;83.80;;;;;;5054744;28;20445;-57
2023/06/08 00:21:23;;;;;;;17.10;15.50;;;20.70;83.90;;;;;;5053922;28;20438;-57
2023/06/08 00:23:50;;;;;;;17.00;15.10;;;20.70;84.20;;;;;;5054739;28;20457;-57
2023/06/08 00:26:17;;;;;;;15.10;13.70;;;20.70;84.10;;;;;;5053279;28;20817;-57
2023/06/08 00:28:47;;;;;;;13.50;12.27;;;20.70;84.30;;;;;;5053660;28;20507;-57
2023/06/08 00:31:13;;;;;;;13.87;11.47;;;20.70;84.30;;;;;;5053839;28;20450;-57
2023/06/08 00:33:40;;;;;;;12.33;11.13;;;20.70;84.30;;;;;;5053724;28;20453;-57
2023/06/08 00:36:08;;;;;;;14.13;12.73;;;20.70;83.80;;;;;;5053807;28;20489;-58
2023/06/08 00:38:35;;;;;;;13.63;12.10;;;20.60;83.80;;;;;;5053663;28;20528;-57
2023/06/08 00:41:02;;;;;;;13.23;11.60;;;20.60;83.80;;;;;;5053336;28;20952;-57
2023/06/08 00:43:28;;;;;;;12.63;11.37;;;20.60;84.10;;;;;;5053554;28;20524;-57
2023/06/08 00:45:56;;;;;;;15.67;12.17;;;20.60;83.80;;;;;;5053432;28;20466;-57
2023/06/08 00:48:26;;;;;;;11.80;10.53;;;20.60;83.80;;;;;;5053495;28;20446;-57
2023/06/08 00:50:54;;;;;;;14.97;12.40;;;20.60;83.70;;;;;;5053063;28;20959;-57
2023/06/08 00:53:22;;;;;;;16.77;12.57;;;20.60;83.80;;;;;;5053424;28;20449;-57
2023/06/08 00:55:51;;;;;;;12.60;11.27;;;20.60;83.90;;;;;;5053399;28;20493;-57
2023/06/08 00:58:18;;;;;;;13.33;11.43;;;20.50;83.80;;;;;;5052979;28;20955;-57
2023/06/08 01:00:46;;;;;;;14.27;10.40;;;20.50;84.00;;;;;;5053369;28;20458;-57
2023/06/08 01:03:14;;;;;;;19.33;11.27;;;20.50;83.90;;;;;;5053274;28;20511;-57
2023/06/08 01:05:43;;;;;;;19.20;11.87;;;20.50;83.50;;;;;;5053247;28;20479;-57
2023/06/08 01:08:18;;;;;;;11.60;10.40;;;20.50;83.40;;;;;;5053275;28;20457;-57
2023/06/08 01:10:57;;;;;;;16.30;11.90;;;20.50;83.30;;;;;;5053060;28;20452;-57
2023/06/08 01:13:29;;;;;;;16.97;11.60;;;20.40;83.10;;;;;;5052944;28;20912;-57
2023/06/08 01:16:01;;;;;;;12.43;10.40;;;20.40;83.10;;;;;;5052784;28;20851;-57
2023/06/08 01:18:32;;;;;;;11.90;10.67;;;20.40;83.10;;;;;;5053303;28;20430;-57
2023/06/08 01:21:11;;;;;;;12.43;11.07;;;20.30;82.90;;;;;;5053200;28;20434;-57
2023/06/08 01:23:56;;;;;;;15.20;11.87;;;20.30;82.90;;;;;;5052858;28;20783;-57
2023/06/08 01:26:26;;;;;;;12.33;11.13;;;20.30;82.90;;;;;;5053511;28;20469;-57
2023/06/08 01:28:55;;;;;;;12.73;11.03;;;20.20;82.60;;;;;;5052914;28;20912;-57
2023/06/08 01:31:22;;;;;;;15.43;11.20;;;20.20;83.50;;;;;;5053089;28;20446;-57
2023/06/08 01:33:49;;;;;;;24.20;11.23;;;20.20;82.60;;;;;;5053231;28;20446;-57
2023/06/08 01:36:22;;;;;;;12.93;10.90;;;20.20;82.50;;;;;;5052841;28;20496;-57
2023/06/08 01:38:59;;;;;;;12.30;11.10;;;20.10;82.70;;;;;;5052760;28;20465;-57
2023/06/08 01:41:31;;;;;;;15.47;11.67;;;20.10;82.80;;;;;;5052956;28;20483;-57
2023/06/08 01:44:00;;;;;;;14.00;10.77;;;20.10;82.70;;;;;;5052460;28;20911;-57
2023/06/08 01:46:29;;;;;;;12.77;11.43;;;20.10;82.70;;;;;;5052907;28;20474;-57
2023/06/08 01:48:59;;;;;;;12.47;10.60;;;20.00;82.60;;;;;;5052852;28;20578;-57
2023/06/08 01:51:27;;;;;;;16.10;10.63;;;20.00;82.40;;;;;;5052498;28;20445;-57
2023/06/08 01:54:00;;;;;;;15.53;10.97;;;19.90;83.20;;;;;;5052853;28;20449;-57
2023/06/08 01:56:31;;;;;;;13.43;10.90;;;19.90;82.70;;;;;;5052709;28;20500;-57
2023/06/08 01:58:57;;;;;;;16.00;10.57;;;19.90;82.70;;;;;;5052757;28;20426;-57
2023/06/08 02:01:24;;;;;;;15.03;10.13;;;19.80;82.70;;;;;;5052705;28;20453;-57
2023/06/08 02:03:51;;;;;;;11.57;10.40;;;19.80;82.90;;;;;;5052362;28;20939;-57
2023/06/08 02:06:18;;;;;;;12.47;10.70;;;19.80;83.00;;;;;;5052385;28;20523;-58
2023/06/08 02:08:45;;;;;;;13.30;10.40;;;19.80;83.00;;;;;;5052576;28;20445;-57
2023/06/08 02:11:11;;;;;;;12.90;11.60;;;19.70;82.90;;;;;;5055437;28;20456;-57
2023/06/08 02:13:41;;;;;;;14.43;11.07;;;19.70;82.80;;;;;;5056758;28;20441;-57
2023/06/08 02:16:08;;;;;;;11.90;10.70;;;19.60;82.90;;;;;;5055970;28;20995;-57
2023/06/08 02:18:40;;;;;;;12.47;10.47;;;19.60;83.10;;;;;;5056491;28;20468;-57
2023/06/08 02:21:07;;;;;;;11.67;10.47;;;19.60;83.00;;;;;;5056338;28;20480;-57
2023/06/08 02:23:33;;;;;;;16.23;10.63;;;19.50;83.00;;;;;;5056227;28;20450;-57
2023/06/08 02:26:00;;;;;;;14.23;10.70;;;19.40;83.00;;;;;;5055930;28;20864;-57
2023/06/08 02:28:27;;;;;;;16.50;10.03;;;19.40;83.00;;;;;;5056032;28;20449;-57
2023/06/08 02:30:55;;;;;;;11.90;10.37;;;19.30;83.00;;;;;;5055679;28;20542;-57
2023/06/08 02:33:22;;;;;;;20.20;11.73;;;19.30;83.30;;;;;;5056113;28;20457;-57
2023/06/08 02:35:49;;;;;;;14.63;11.23;;;19.30;83.50;;;;;;5056026;28;20469;-57
2023/06/08 02:38:16;;;;;;;13.83;11.30;;;19.20;83.50;;;;;;5055917;28;20532;-57
2023/06/08 02:40:43;;;;;;;14.50;11.60;;;19.20;83.80;;;;;;5055825;28;20446;-57
2023/06/08 02:43:09;;;;;;;13.03;11.57;;;19.20;83.90;;;;;;5055864;28;20453;-57
2023/06/08 02:45:37;;;;;;;13.90;10.67;;;19.10;84.10;;;;;;5055693;28;20445;-57
2023/06/08 02:48:06;;;;;;;12.47;10.40;;;19.20;84.00;;;;;;5055726;28;20476;-57
2023/06/08 02:50:32;;;;;;;12.37;11.13;;;19.20;84.20;;;;;;5055482;28;20456;-57
2023/06/08 02:52:59;;;;;;;15.50;12.83;;;19.20;84.40;;;;;;5055616;28;20450;-57
2023/06/08 02:55:28;;;;;;;16.77;10.60;;;19.10;84.30;;;;;;5055575;28;20450;-57
2023/06/08 02:57:56;;;;;;;12.43;10.77;;;19.10;84.40;;;;;;5055642;28;20492;-57
2023/06/08 03:00:23;;;;;;;13.70;10.40;;;19.10;84.30;;;;;;5055466;28;20473;-57
2023/06/08 03:02:50;;;;;;;15.03;10.80;;;19.10;84.20;;;;;;5055461;28;20451;-57
2023/06/08 03:05:20;;;;;;;14.80;10.90;;;19.00;84.30;;;;;;5055436;28;20457;-57
2023/06/08 03:07:47;;;;;;;13.03;10.27;;;19.00;84.50;;;;;;5055031;28;20998;-57
2023/06/08 03:10:14;;;;;;;12.50;9.87;;;19.00;85.10;;;;;;5055335;28;20465;-57
2023/06/08 03:12:40;;;;;;;10.80;9.53;;;18.90;84.00;;;;;;5055215;28;20967;-57
2023/06/08 03:15:10;;;;;;;12.47;10.90;;;18.90;84.10;;;;;;5055601;28;20813;-56
2023/06/08 03:17:37;;;;;;;11.40;10.20;;;18.80;83.90;;;;;;5055235;28;20579;-56
2023/06/08 03:20:05;;;;;;;11.83;10.40;;;18.80;84.00;;;;;;5055772;28;20450;-56
2023/06/08 03:22:34;;;;;;;12.70;11.00;;;18.80;84.20;;;;;;5055067;28;20449;-56
2023/06/08 03:25:03;;;;;;;15.90;11.17;;;18.70;84.40;;;;;;5055299;28;20450;-56
2023/06/08 03:27:29;;;;;;;11.70;9.53;;;18.70;84.60;;;;;;5054816;28;20832;-56
2023/06/08 03:29:56;;;;;;;11.33;10.20;;;18.70;84.70;;;;;;5054921;28;20454;-56
2023/06/08 03:32:23;;;;;;;12.70;9.67;;;18.70;84.80;;;;;;5054810;28;20969;-56
2023/06/08 03:34:49;;;;;;;11.20;9.33;;;18.60;84.80;;;;;;5054795;28;20865;-56
2023/06/08 03:37:16;;;;;;;18.73;11.53;;;18.60;85.00;;;;;;5054623;28;20496;-56
2023/06/08 03:39:44;;;;;;;13.60;9.97;;;18.60;84.90;;;;;;5054807;28;20475;-56
2023/06/08 03:42:11;;;;;;;19.63;11.30;;;18.60;84.90;;;;;;5054692;28;20442;-56
2023/06/08 03:44:38;;;;;;;12.37;10.27;;;18.60;85.00;;;;;;5054524;28;20457;-56
2023/06/08 03:47:08;;;;;;;13.17;11.23;;;18.50;85.10;;;;;;5054541;28;20476;-56
2023/06/08 03:49:35;;;;;;;16.30;10.67;;;18.50;85.10;;;;;;5054510;28;20466;-56
2023/06/08 03:52:02;;;;;;;13.33;9.60;;;18.50;85.00;;;;;;5054483;28;20450;-56
2023/06/08 03:54:29;;;;;;;14.30;9.80;;;18.50;85.10;;;;;;5054380;28;20453;-56
2023/06/08 03:56:57;;;;;;;14.40;10.40;;;18.50;85.00;;;;;;5054196;28;20484;-56
2023/06/08 03:59:23;;;;;;;11.10;9.50;;;18.40;85.00;;;;;;5054272;28;20445;-56
2023/06/08 04:01:50;;;;;;;10.30;9.00;;;18.40;85.00;;;;;;5054811;28;20441;-56
2023/06/08 04:04:18;;;;;;;12.37;9.77;;;18.40;85.20;;;;;;5054273;28;20447;-56
2023/06/08 04:06:44;;;;;;;10.40;9.00;;;18.40;85.30;;;;;;5054110;28;20469;-56
2023/06/08 04:09:11;;;;;;;11.97;9.30;;;18.40;85.30;;;;;;5054120;28;20507;-56
2023/06/08 04:11:38;;;;;;;11.47;10.27;;;18.40;85.30;;;;;;5053854;28;20890;-56
2023/06/08 04:14:06;;;;;;;10.63;9.53;;;18.40;85.30;;;;;;5054137;28;20453;-56
2023/06/08 04:16:33;;;;;;;13.53;9.50;;;18.50;85.80;;;;;;5053588;28;20979;-56
2023/06/08 04:19:00;;;;;;;15.27;9.07;;;18.50;85.90;;;;;;5053996;28;20441;-56
2023/06/08 04:21:28;;;;;;;14.53;9.30;;;18.50;86.10;;;;;;5053763;28;20448;-56
2023/06/08 04:23:54;;;;;;;12.73;11.13;;;18.40;86.30;;;;;;5054164;28;20544;-56
2023/06/08 04:26:22;;;;;;;16.63;9.73;;;18.40;86.60;;;;;;5053781;28;20496;-56
2023/06/08 04:28:49;;;;;;;14.80;9.17;;;18.50;86.90;;;;;;5053396;28;20449;-56
2023/06/08 04:31:17;;;;;;;11.10;9.50;;;18.50;87.20;;;;;;5053462;28;20445;-56
2023/06/08 04:33:44;;;;;;;11.70;9.00;;;18.50;87.30;;;;;;5053246;28;20454;-57
2023/06/08 04:36:11;;;;;;;14.40;9.27;;;18.50;87.60;;;;;;5053586;28;20552;-57
2023/06/08 04:38:38;;;;;;;14.23;10.13;;;18.50;87.60;;;;;;5053246;28;20482;-57
2023/06/08 04:41:07;;;;;;;13.47;9.93;;;18.50;87.70;;;;;;5053656;28;20453;-57
2023/06/08 04:43:34;;;;;;;14.87;9.53;;;18.60;87.90;;;;;;5053516;28;20457;-57
2023/06/08 04:46:04;;;;;;;10.23;9.17;;;18.60;87.60;;;;;;5053725;28;20558;-57
2023/06/08 04:48:34;;;;;;;11.73;9.23;;;18.60;87.50;;;;;;5053524;28;20426;-57
2023/06/08 04:51:03;;;;;;;10.80;9.13;;;18.70;87.90;;;;;;5053438;28;20477;-57
2023/06/08 04:53:33;;;;;;;11.97;8.90;;;18.70;87.90;;;;;;5053211;28;20487;-57
2023/06/08 04:56:02;;;;;;;11.30;9.23;;;18.80;87.90;;;;;;5053580;28;20505;-57
2023/06/08 04:58:30;;;;;;;11.27;10.20;;;18.80;87.90;;;;;;5053185;28;20478;-57
2023/06/08 05:00:57;;;;;;;13.43;9.50;;;18.90;87.90;;;;;;5053403;28;20446;-57
2023/06/08 05:03:25;;;;;;;15.67;10.47;;;18.90;88.00;;;;;;5053472;28;20522;-57
2023/06/08 05:05:54;;;;;;;13.83;10.10;;;18.90;88.00;;;;;;5052993;28;20501;-57
2023/06/08 05:08:20;;;;;;;17.17;9.93;;;19.00;87.70;;;;;;5053348;28;20545;-57
2023/06/08 05:10:47;;;;;;;13.13;9.70;;;19.00;87.60;;;;;;5053296;28;20446;-57
2023/06/08 05:13:14;;;;;;;12.97;9.10;;;19.10;87.60;;;;;;5053577;28;20430;-57
2023/06/08 05:15:40;;;;;;;14.60;10.00;;;19.10;87.60;;;;;;5054903;28;20456;-57
2023/06/08 05:18:07;;;;;;;14.70;9.50;;;19.20;87.50;;;;;;5055629;28;20478;-58
2023/06/08 05:20:34;;;;;;;14.40;10.70;;;19.20;87.20;;;;;;5056270;28;20445;-57
2023/06/08 05:23:02;;;;;;;9.07;8.13;;;19.20;87.20;;;;;;5054207;28;20445;-57
2023/06/08 05:25:29;;;;;;;14.83;9.20;;;19.30;87.00;;;;;;5053080;28;20450;-57
2023/06/08 05:27:56;;;;;;;11.77;9.60;;;19.30;86.90;;;;;;5053216;28;20438;-57
2023/06/08 05:30:23;;;;;;;10.57;9.60;;;19.40;86.00;;;;;;5053145;28;20457;-57
2023/06/08 05:32:50;;;;;;;15.30;10.67;;;19.40;85.90;;;;;;5052848;28;20449;-57
2023/06/08 05:35:16;;;;;;;11.20;10.00;;;19.50;85.80;;;;;;5052826;28;20939;-57
2023/06/08 05:37:43;;;;;;;14.60;11.17;;;19.50;85.90;;;;;;5052976;28;20481;-57
2023/06/08 05:40:12;;;;;;;14.13;9.30;;;19.50;85.40;;;;;;5053029;28;20496;-57
2023/06/08 05:42:39;;;;;;;14.07;9.47;;;19.60;85.30;;;;;;5052660;28;20450;-57
2023/06/08 05:45:06;;;;;;;11.73;9.07;;;19.60;84.90;;;;;;5053796;28;20503;-57
2023/06/08 05:47:33;;;;;;;14.23;9.90;;;19.70;84.90;;;;;;5056591;28;20987;-57
2023/06/08 05:49:59;;;;;;;11.87;9.33;;;19.80;84.80;;;;;;5056961;28;20468;-57
2023/06/08 05:52:26;;;;;;;12.03;8.87;;;19.80;83.70;;;;;;5057005;28;20448;-57
2023/06/08 05:54:53;;;;;;;12.57;10.83;;;19.90;83.80;;;;;;5057643;28;20485;-57
2023/06/08 05:57:21;;;;;;;14.43;11.17;;;20.00;83.80;;;;;;5056630;28;20489;-57
2023/06/08 05:59:48;;;;;;;12.80;9.27;;;20.00;83.90;;;;;;5057025;28;20454;-57
2023/06/08 06:02:14;;;;;;;12.13;9.17;;;20.10;83.30;;;;;;5057062;28;20445;-57
2023/06/08 06:04:41;;;;;;;17.23;11.03;;;20.20;82.80;;;;;;5056719;28;20508;-57
2023/06/08 06:07:08;;;;;;;15.50;9.83;;;20.30;82.70;;;;;;5056405;28;20473;-57
2023/06/08 06:09:34;;;;;;;14.83;9.70;;;20.40;82.30;;;;;;5056201;28;20947;-57
2023/06/08 06:12:02;;;;;;;14.40;11.00;;;20.40;81.60;;;;;;5056286;28;20881;-58
2023/06/08 06:14:37;;;;;;;20.83;11.63;;;20.50;81.10;;;;;;5056474;28;20480;-57
2023/06/08 06:17:04;;;;;;;14.43;10.40;;;20.60;80.90;;;;;;5056202;28;20497;-57
2023/06/08 06:19:36;;;;;;;11.97;10.00;;;20.70;80.20;;;;;;5055962;28;20944;-57
2023/06/08 06:22:03;;;;;;;9.67;8.30;;;20.80;80.20;;;;;;5056539;28;20525;-57
2023/06/08 06:24:29;;;;;;;11.70;8.53;;;20.90;79.80;;;;;;5056482;28;20441;-57
2023/06/08 06:26:56;;;;;;;10.83;9.57;;;21.00;79.40;;;;;;5056078;28;20477;-57
2023/06/08 06:29:23;;;;;;;12.20;9.80;;;21.10;79.60;;;;;;5056052;28;20807;-57
2023/06/08 06:31:51;;;;;;;14.60;9.27;;;21.20;78.80;;;;;;5056131;28;20455;-57
2023/06/08 06:34:19;;;;;;;12.50;9.77;;;21.30;78.50;;;;;;5056038;28;20888;-57
2023/06/08 06:36:46;;;;;;;11.30;9.47;;;21.40;77.60;;;;;;5055883;28;20975;-57
2023/06/08 06:39:13;;;;;;;13.07;9.53;;;21.60;77.30;;;;;;5055741;28;20496;-57
2023/06/08 06:41:40;;;;;;;11.73;8.50;;;21.70;76.70;;;;;;5055908;28;20445;-57
2023/06/08 06:44:07;;;;;;;12.50;8.80;;;21.80;76.50;;;;;;5055885;28;20457;-57
2023/06/08 06:46:34;;;;;;;9.83;8.40;;;21.90;75.80;;;;;;5055333;28;20894;-57
2023/06/08 06:49:02;;;;;;;13.27;9.20;;;22.00;75.30;;;;;;5055800;28;20438;-58
2023/06/08 06:51:29;;;;;;;13.80;10.30;;;22.10;74.50;;;;;;5055807;28;20445;-57
2023/06/08 06:53:55;;;;;;;12.80;9.17;;;22.20;73.70;;;;;;5055595;28;20790;-57
2023/06/08 06:56:22;;;;;;;11.60;9.27;;;22.40;73.90;;;;;;5054924;28;20476;-57
2023/06/08 06:58:49;;;;;;;10.20;8.63;;;22.50;73.50;;;;;;5055511;28;20484;-57
2023/06/08 07:01:16;;;;;;;9.47;8.40;;;22.60;72.80;;;;;;5055484;28;20471;-58
2023/06/08 07:03:44;;;;;;;13.60;9.17;;;22.80;72.80;;;;;;5055615;28;20481;-58
2023/06/08 07:06:12;;;;;;;11.77;10.20;;;22.90;72.10;;;;;;5054953;28;20474;-58
2023/06/08 07:08:39;;;;;;;14.30;8.57;;;23.00;71.30;;;;;;5055374;28;20442;-58
2023/06/08 07:11:06;;;;;;;11.73;8.20;;;23.20;70.80;;;;;;5055038;28;20565;-58
2023/06/08 07:13:33;;;;;;;8.13;7.30;;;23.30;69.20;;;;;;5055255;28;20452;-58
2023/06/08 07:16:00;;;;;;;10.43;9.33;;;23.50;68.70;;;;;;5054888;28;21004;-57
2023/06/08 07:18:27;;;;;;;9.10;8.20;;;23.60;68.60;;;;;;5054930;28;20485;-58
2023/06/08 07:20:54;;;;;;;10.30;8.20;;;23.80;69.30;;;;;;5055144;28;20449;-57
2023/06/08 07:23:22;;;;;;;15.47;9.60;;;23.90;67.40;;;;;;5055128;28;20458;-57
2023/06/08 07:25:49;;;;;;;10.40;8.93;;;24.00;66.90;;;;;;5054999;28;20477;-58
2023/06/08 07:28:16;;;;;;;12.93;8.93;;;24.20;66.30;;;;;;5054995;28;20500;-57
2023/06/08 07:30:43;;;;;;;9.43;8.30;;;24.40;66.00;;;;;;5055116;28;20456;-58
2023/06/08 07:33:10;;;;;;;9.23;8.27;;;24.60;64.80;;;;;;5054940;28;20453;-58
2023/06/08 07:35:36;;;;;;;8.60;7.60;;;24.70;63.90;;;;;;5054494;28;20978;-57
2023/06/08 07:38:03;;;;;;;9.37;7.77;;;24.90;63.00;;;;;;5054525;28;20485;-58
2023/06/08 07:40:31;;;;;;;11.60;7.50;;;25.10;63.00;;;;;;5054714;28;20449;-57
2023/06/08 07:42:58;;;;;;;9.27;6.70;;;25.20;61.90;;;;;;5054742;28;20450;-58
2023/06/08 07:45:25;;;;;;;9.37;6.50;;;25.40;61.10;;;;;;5054782;28;20450;-58
2023/06/08 07:47:51;;;;;;;8.83;7.40;;;25.60;60.00;;;;;;5054606;28;20446;-58
2023/06/08 07:50:18;;;;;;;10.80;8.57;;;25.80;59.40;;;;;;5059853;28;20441;-58
2023/06/08 07:52:45;;;;;;;12.20;8.37;;;26.00;59.40;;;;;;5055472;28;20445;-58
2023/06/08 07:55:11;;;;;;;14.20;8.40;;;26.10;59.10;;;;;;5054183;28;20445;-58
2023/06/08 07:57:40;;;;;;;6.77;6.17;;;26.30;58.80;;;;;;5054294;28;20466;-58
2023/06/08 08:00:09;;;;;;;7.47;6.77;;;26.40;57.80;;;;;;5054427;28;20449;-58
2023/06/08 08:02:35;;;;;;;9.27;6.73;;;26.60;57.00;;;;;;5054185;28;20539;-58
2023/06/08 08:05:02;;;;;;;10.40;6.60;;;26.60;57.00;;;;;;5054099;28;20495;-58
2023/06/08 08:07:29;;;;;;;12.10;7.03;;;26.80;56.70;;;;;;5053458;28;20539;-58
2023/06/08 08:09:56;;;;;;;10.47;7.80;;;27.00;56.50;;;;;;5054154;28;20553;-58
2023/06/08 08:12:22;;;;;;;8.83;7.27;;;27.20;56.10;;;;;;5053861;28;20467;-58
2023/06/08 08:14:51;;;;;;;9.87;6.90;;;27.30;55.30;;;;;;5054219;28;20517;-58
2023/06/08 08:17:17;;;;;;;8.17;7.30;;;27.50;55.20;;;;;;5053782;28;20885;-58
2023/06/08 08:19:44;;;;;;;9.77;7.03;;;27.60;54.70;;;;;;5053718;28;20887;-58
2023/06/08 08:22:11;;;;;;;10.63;7.20;;;27.80;54.30;;;;;;5054705;28;20450;-58
2023/06/08 08:24:37;;;;;;;8.20;7.10;;;27.90;54.20;;;;;;5053852;28;20457;-58
2023/06/08 08:27:05;;;;;;;8.50;6.93;;;28.10;54.20;;;;;;5053715;28;20544;-58
2023/06/08 08:29:31;;;;;;;9.33;7.43;;;28.20;53.80;;;;;;5053539;28;20487;-58
2023/06/08 08:31:59;;;;;;;8.90;7.00;;;28.40;53.30;;;;;;5053555;28;20963;-58
2023/06/08 08:34:26;;;;;;;9.67;6.50;;;28.50;52.80;;;;;;5053724;28;20527;-58
2023/06/08 08:36:53;;;;;;;9.17;7.30;;;28.70;52.20;;;;;;5054160;28;20473;-58
2023/06/08 08:39:19;;;;;;;7.47;6.67;;;28.80;51.90;;;;;;5053504;28;21018;-58
2023/06/08 08:41:49;;;;;;;9.57;6.70;;;29.00;51.40;;;;;;5053237;28;20446;-58
2023/06/08 08:44:16;;;;;;;9.50;5.97;;;29.20;50.60;;;;;;5053652;28;20453;-55
2023/06/08 08:46:44;;;;;;;10.00;6.50;;;29.40;49.80;;;;;;5053500;28;20470;-55
2023/06/08 08:49:16;;;;;;;7.20;5.80;;;29.60;49.90;;;;;;5052814;28;20935;-58
2023/06/08 08:51:48;;;;;;;9.90;7.00;;;29.80;49.70;;;;;;5053433;28;20939;-56
2023/06/08 08:54:16;;;;;;;7.10;6.50;;;30.00;48.70;;;;;;5053457;28;20430;-56
2023/06/08 08:56:43;;;;;;;8.40;7.23;;;30.20;47.80;;;;;;5053050;28;20979;-56
2023/06/08 08:59:10;;;;;;;9.03;6.80;;;30.30;47.50;;;;;;5052998;28;21052;-56
2023/06/08 09:01:40;;;;;;;7.10;6.40;;;30.50;47.80;;;;;;5053442;28;20454;-56
2023/06/08 09:04:07;;;;;;;10.43;6.63;;;30.60;47.20;;;;;;5053316;28;20487;-56
2023/06/08 09:06:35;;;;;;;8.63;7.80;;;30.70;47.00;;;;;;5052885;28;20508;-56
2023/06/08 09:09:03;;;;;;;8.07;6.30;;;30.90;47.00;;;;;;5053347;28;20448;-57
2023/06/08 09:11:29;;;;;;;10.37;6.90;;;31.00;46.30;;;;;;5053090;28;20457;-56
2023/06/08 09:14:10;;;;;;;7.00;6.30;;;31.20;46.30;;;;;;5052994;28;20977;-57
2023/06/08 09:16:42;;;;;;;6.23;5.70;;;31.30;45.20;;;;;;5053067;28;20838;-56
2023/06/08 09:19:10;;;;;;;7.80;7.00;;;31.50;45.00;;;;;;5054601;28;20574;-57
2023/06/08 09:21:40;;;;;;;8.67;7.83;;;31.60;44.90;;;;;;5059856;28;20453;-57
2023/06/08 09:24:11;;;;;;;7.97;6.50;;;31.80;44.40;;;;;;5059971;28;20432;-56
2023/06/08 09:26:38;;;;;;;8.47;7.10;;;32.00;43.90;;;;;;5059842;28;20821;-56
2023/06/08 09:29:06;;;;;;;7.17;6.57;;;32.10;43.30;;;;;;5059514;28;20492;-56
2023/06/08 09:31:34;;;;;;;7.93;6.83;;;32.30;43.00;;;;;;5059819;28;20469;-56
2023/06/08 09:34:08;;;;;;;8.70;7.80;;;32.50;43.10;;;;;;5059875;28;20448;-57
2023/06/08 09:36:37;;;;;;;10.47;7.07;;;32.70;42.90;;;;;;5059695;28;20475;-57
2023/06/08 09:39:07;;;;;;;7.07;6.03;;;32.90;42.10;;;;;;5059608;28;20481;-57
2023/06/08 09:41:34;;;;;;;8.17;7.47;;;33.00;41.50;;;;;;5059859;28;20954;-57
2023/06/08 09:44:01;;;;;;;12.10;7.60;;;33.30;40.90;;;;;;5059707;28;20495;-57
2023/06/08 09:46:35;;;;;;;8.07;7.27;;;33.40;39.50;;;;;;5059118;28;20473;-57
2023/06/08 09:49:05;;;;;;;7.47;6.80;;;33.50;39.50;;;;;;5059623;28;20463;-56
2023/06/08 09:51:34;;;;;;;7.37;6.67;;;33.70;39.90;;;;;;5059329;28;20491;-56
2023/06/08 09:54:02;;;;;;;8.13;7.13;;;33.90;39.30;;;;;;5059580;28;20489;-57
2023/06/08 09:56:31;;;;;;;9.73;8.80;;;34.10;39.20;;;;;;5059049;28;20978;-57
2023/06/08 09:58:58;;;;;;;8.63;7.83;;;34.40;38.50;;;;;;5059522;28;20838;-57
2023/06/08 10:01:31;;;;;;;9.00;8.20;;;34.60;37.80;;;;;;5059149;28;20460;-57
2023/06/08 10:04:02;;;;;;;14.43;7.87;;;34.80;37.50;;;;;;5059537;28;20430;-56
2023/06/08 10:06:31;;;;;;;9.77;6.93;;;35.10;37.00;;;;;;5059180;28;20468;-57
2023/06/08 10:09:00;;;;;;;9.00;8.07;;;35.40;36.80;;;;;;5059539;28;20441;-57
2023/06/08 10:11:29;;;;;;;11.43;7.60;;;35.70;36.20;;;;;;5059160;28;20210;-56
2023/06/08 10:13:58;;;;;;;9.30;8.40;;;36.00;35.50;;;;;;5059209;28;20449;-56
2023/06/08 10:16:26;;;;;;;8.90;8.00;;;36.30;34.80;;;;;;5059360;28;20637;-57
2023/06/08 10:18:54;;;;;;;11.07;7.10;;;36.50;33.30;;;;;;5059371;28;20226;-56
2023/06/08 10:21:21;;;;;;;17.27;7.50;;;36.70;33.30;;;;;;5059158;28;20273;-57
2023/06/08 10:23:49;;;;;;;8.13;6.82;;;37.00;33.80;;;;;;5059267;28;20209;-57
2023/06/08 10:26:17;;;;;;;12.50;10.23;;;37.20;32.40;;;;;;5058863;28;20605;-57
2023/06/08 10:29:08;;;;;;;10.13;8.57;;;37.50;31.70;;;;;;5059160;28;20248;-57
2023/06/08 10:31:37;;;;;;;9.52;6.38;;;37.60;30.80;;;;;;5056307;28;20186;-57
2023/06/08 10:34:12;;;;;;;7.13;6.43;;;37.90;30.50;;;;;;5056143;28;20260;-57
2023/06/08 10:36:40;;;;;;;11.25;7.03;;;38.40;30.30;;;;;;5055323;28;20725;-57
2023/06/08 10:39:10;;;;;;;10.25;8.75;;;38.80;30.20;;;;;;5055523;28;20258;-57
2023/06/08 10:41:45;;;;;;;8.57;7.57;;;39.10;29.50;;;;;;5055874;28;20206;-57
2023/06/08 10:44:29;;;;;;;9.70;8.40;;;39.50;29.00;;;;;;5055893;28;20226;-57
2023/06/08 10:47:00;;;;;;;7.90;6.55;;;39.70;27.50;;;;;;5054080;28;20254;-57
2023/06/08 10:49:30;;;;;;;8.40;6.28;;;40.00;27.80;;;;;;5055706;28;20204;-57
2023/06/08 10:51:59;;;;;;;16.33;11.35;;;40.40;27.80;;;;;;5055787;28;20278;-57
2023/06/08 10:54:26;;;;;;;13.13;12.00;;;40.80;27.70;;;;;;5055629;28;20256;-57
2023/06/08 10:56:56;;;;;;;10.70;9.30;;;41.30;26.90;;;;;;5055496;28;20264;-57
2023/06/08 10:59:25;;;;;;;9.75;8.75;;;41.70;26.40;;;;;;5055467;28;20219;-57
2023/06/08 11:01:54;;;;;;;12.68;7.38;;;41.90;25.00;;;;;;5055588;28;20207;-57
2023/06/08 11:04:21;;;;;;;12.25;6.57;;;41.90;25.10;;;;;;5055173;28;20565;-57
2023/06/08 11:06:48;;;;;;;9.27;6.45;;;42.10;25.30;;;;;;5055343;28;20230;-57
2023/06/08 11:09:15;;;;;;;11.57;7.78;;;42.40;25.30;;;;;;5055410;28;20213;-57
2023/06/08 11:11:51;;;;;;;8.60;6.63;;;42.70;25.00;;;;;;5055144;28;20210;-57
2023/06/08 11:14:21;;;;;;;7.97;7.28;;;43.00;24.10;;;;;;5055016;28;20206;-57
2023/06/08 11:16:54;;;;;;;9.13;6.97;;;43.10;24.00;;;;;;5055276;28;20276;-57
2023/06/08 11:19:21;;;;;;;7.32;6.57;;;43.30;23.90;;;;;;5055376;28;20230;-57
2023/06/08 11:21:50;;;;;;;6.65;6.05;;;43.40;23.40;;;;;;5055253;28;20207;-57
2023/06/08 11:24:17;;;;;;;7.80;7.10;;;43.50;23.40;;;;;;5054564;28;20763;-57
2023/06/08 11:26:44;;;;;;;6.43;5.82;;;43.60;23.60;;;;;;5054879;28;20233;-57
2023/06/08 11:29:10;;;;;;;9.75;7.05;;;43.70;22.90;;;;;;5054733;28;20695;-57
2023/06/08 11:31:40;;;;;;;7.95;5.80;;;44.00;23.40;;;;;;5055016;28;20205;-57
2023/06/08 11:34:11;;;;;;;7.70;5.28;;;44.40;23.30;;;;;;5054880;28;20293;-57
2023/06/08 11:36:39;;;;;;;10.95;6.78;;;44.70;22.80;;;;;;5054827;28;20226;-57
2023/06/08 11:39:07;;;;;;;8.05;6.38;;;44.70;22.40;;;;;;5054795;28;20562;-57
2023/06/08 11:41:33;;;;;;;8.00;7.30;;;44.10;22.60;;;;;;5054831;28;20569;-57
2023/06/08 11:44:00;;;;;;;7.88;6.35;;;43.30;23.00;;;;;;5053535;28;20202;-57
2023/06/08 11:46:27;;;;;;;8.68;6.43;;;42.90;23.60;;;;;;5054628;28;20222;-57
2023/06/08 11:49:03;;;;;;;7.82;6.68;;;43.10;24.50;;;;;;5054619;28;20699;-57
2023/06/08 11:51:32;;;;;;;7.57;6.88;;;43.40;23.30;;;;;;5054363;28;20654;-57
2023/06/08 11:53:58;;;;;;;7.97;6.90;;;43.20;23.40;;;;;;5054558;28;20293;-56
2023/06/08 11:56:31;;;;;;;10.20;6.82;;;42.50;24.20;;;;;;5054500;28;20226;-57
2023/06/08 11:58:59;;;;;;;7.53;6.43;;;41.70;24.60;;;;;;5054320;28;20187;-56
2023/06/08 12:01:25;;;;;;;9.15;7.53;;;40.90;25.90;;;;;;5054439;28;20210;-56
2023/06/08 12:03:52;;;;;;;8.38;6.95;;;41.10;26.90;;;;;;5054231;28;20578;-56
2023/06/08 12:06:24;;;;;;;6.53;5.90;;;41.50;26.10;;;;;;5054044;28;20716;-57
2023/06/08 12:08:53;;;;;;;7.25;6.65;;;41.60;25.20;;;;;;5054349;28;20273;-57
2023/06/08 12:11:21;;;;;;;7.10;6.40;;;41.80;25.10;;;;;;5054031;28;20574;-57
2023/06/08 12:13:47;;;;;;;7.38;6.47;;;41.50;24.90;;;;;;5054269;28;20186;-56
2023/06/08 12:16:15;;;;;;;7.95;7.35;;;41.00;25.40;;;;;;5053773;28;20724;-56
2023/06/08 12:18:43;;;;;;;7.53;6.82;;;40.60;25.90;;;;;;5053996;28;20210;-57
2023/06/08 12:21:13;;;;;;;7.90;7.18;;;40.70;26.80;;;;;;5053915;28;20632;-57
2023/06/08 12:23:40;;;;;;;7.70;7.00;;;41.10;26.60;;;;;;5054037;28;20187;-57
2023/06/08 12:26:08;;;;;;;6.57;5.97;;;41.80;25.70;;;;;;5053620;28;20230;-57
2023/06/08 12:28:35;;;;;;;7.85;7.22;;;42.60;25.00;;;;;;5053975;28;20211;-57
2023/06/08 12:31:02;;;;;;;10.85;7.80;;;43.40;24.00;;;;;;5053944;28;20221;-57
2023/06/08 12:33:29;;;;;;;8.88;7.95;;;44.00;23.30;;;;;;5053751;28;20203;-57
2023/06/08 12:35:55;;;;;;;7.40;6.22;;;44.50;22.50;;;;;;5053691;28;20309;-57
2023/06/08 12:38:23;;;;;;;7.50;6.88;;;45.10;22.00;;;;;;5053770;28;20202;-57
2023/06/08 12:40:51;;;;;;;6.28;5.15;;;45.60;21.30;;;;;;5053774;28;20624;-57